Time;durP1;ratioP1;P1;durP2;ratioP2;P2;SDS_P1;SDS_P2;PMS_P1;PMS_P2;Temp;Humidity;BMP_temperature;BMP_pressure;BME280_temperature;BME280_humidity;BME280_pressure;Samples;Min_cycle;Max_cycle;Signal;HPM_P1;HPM_P2
2021/09/22 00:01:40;;;;;;;20.47;10.17;;;11.90;99.90;;;;;;5075264;28;20367;-78
2021/09/22 00:04:07;;;;;;;18.47;10.40;;;11.90;99.90;;;;;;5075335;28;20239;-78
2021/09/22 00:06:34;;;;;;;16.97;10.33;;;11.90;99.90;;;;;;5074582;28;20249;-78
2021/09/22 00:09:01;;;;;;;15.97;9.37;;;12.00;99.90;;;;;;5074998;28;20222;-78
2021/09/22 00:11:27;;;;;;;16.57;9.97;;;11.90;99.90;;;;;;5073734;28;20292;-78
2021/09/22 00:13:56;;;;;;;15.13;9.90;;;12.00;99.90;;;;;;5074688;28;20210;-78
2021/09/22 00:16:22;;;;;;;16.73;9.97;;;11.90;99.90;;;;;;5074724;28;20207;-78
2021/09/22 00:18:49;;;;;;;16.73;10.37;;;11.90;99.90;;;;;;5074621;28;20289;-78
2021/09/22 00:21:16;;;;;;;22.43;10.57;;;12.00;99.90;;;;;;5074732;28;20199;-78
2021/09/22 00:23:43;;;;;;;19.40;10.47;;;12.10;99.90;;;;;;5074974;28;20226;-78
2021/09/22 00:26:10;;;;;;;15.73;9.80;;;12.10;99.90;;;;;;5074862;28;20286;-78
2021/09/22 00:28:37;;;;;;;16.07;9.37;;;12.10;99.90;;;;;;5074720;28;20209;-78
2021/09/22 00:31:05;;;;;;;14.47;8.93;;;12.10;99.90;;;;;;5074623;28;20226;-78
2021/09/22 00:33:32;;;;;;;21.47;9.83;;;12.10;99.90;;;;;;5074067;28;20652;-78
2021/09/22 00:35:59;;;;;;;16.47;9.43;;;12.00;99.90;;;;;;5074253;28;20199;-78
2021/09/22 00:38:26;;;;;;;14.40;8.87;;;11.90;99.90;;;;;;5074235;28;20208;-78
2021/09/22 00:40:53;;;;;;;19.47;9.53;;;11.80;99.90;;;;;;5073974;28;20213;-78
2021/09/22 00:43:20;;;;;;;13.43;8.07;;;11.80;99.90;;;;;;5074376;28;20207;-78
2021/09/22 00:45:47;;;;;;;18.83;9.37;;;11.80;99.90;;;;;;5074194;28;20212;-78
2021/09/22 00:48:15;;;;;;;19.57;9.83;;;11.90;99.90;;;;;;5074306;28;20586;-78
2021/09/22 00:50:42;;;;;;;16.70;9.77;;;12.00;99.90;;;;;;5074198;28;20561;-78
2021/09/22 00:53:11;;;;;;;17.73;10.37;;;12.00;99.90;;;;;;5074295;28;20300;-78
2021/09/22 00:55:40;;;;;;;22.53;10.10;;;12.00;99.90;;;;;;5073866;28;20739;-78
2021/09/22 00:58:09;;;;;;;18.97;10.27;;;12.10;99.90;;;;;;5074129;28;20204;-79
2021/09/22 01:00:37;;;;;;;16.17;9.47;;;12.10;99.90;;;;;;5074085;28;20214;-78
2021/09/22 01:03:04;;;;;;;17.87;9.27;;;11.90;99.90;;;;;;5073345;28;20290;-78
2021/09/22 01:05:33;;;;;;;18.50;9.50;;;11.80;99.90;;;;;;5073748;28;20580;-78
2021/09/22 01:08:00;;;;;;;17.57;9.87;;;11.70;99.90;;;;;;5073514;28;20572;-78
2021/09/22 01:10:28;;;;;;;16.17;9.77;;;11.80;99.90;;;;;;5073744;28;20695;-78
2021/09/22 01:12:55;;;;;;;19.53;9.83;;;11.80;99.90;;;;;;5073635;28;20211;-78
2021/09/22 01:15:30;;;;;;;16.57;10.87;;;11.70;99.90;;;;;;5074008;28;20206;-78
2021/09/22 01:17:58;;;;;;;15.53;9.90;;;11.80;99.90;;;;;;5073624;28;20726;-78
2021/09/22 01:20:28;;;;;;;15.77;9.53;;;11.90;99.90;;;;;;5073723;28;20197;-78
2021/09/22 01:22:57;;;;;;;16.20;9.73;;;12.00;99.90;;;;;;5073371;28;20659;-78
2021/09/22 01:25:24;;;;;;;19.87;10.20;;;11.90;99.90;;;;;;5059687;28;20211;-78
2021/09/22 01:27:52;;;;;;;19.47;10.17;;;11.90;99.90;;;;;;5064947;28;20199;-78
2021/09/22 01:30:19;;;;;;;16.50;9.70;;;11.80;99.90;;;;;;5073370;28;20219;-78
2021/09/22 01:32:51;;;;;;;17.97;10.17;;;11.70;99.90;;;;;;5059687;28;20670;-78
2021/09/22 01:35:19;;;;;;;14.90;9.37;;;11.60;99.90;;;;;;5072977;28;20730;-78
2021/09/22 01:37:46;;;;;;;17.03;9.53;;;11.60;99.90;;;;;;5075565;28;20195;-78
2021/09/22 01:40:14;;;;;;;18.43;10.17;;;11.50;99.90;;;;;;5080899;28;20198;-78
2021/09/22 01:42:41;;;;;;;16.50;9.73;;;11.50;99.90;;;;;;5073036;28;20656;-78
2021/09/22 01:45:12;;;;;;;20.47;10.17;;;11.40;99.90;;;;;;5072613;28;20648;-78
2021/09/22 01:47:38;;;;;;;20.83;10.37;;;11.50;99.90;;;;;;5072972;28;20210;-78
2021/09/22 01:50:08;;;;;;;17.67;9.80;;;11.40;99.90;;;;;;5073048;28;20230;-78
2021/09/22 01:52:37;;;;;;;19.80;10.40;;;11.40;99.90;;;;;;5073543;28;20213;-78
2021/09/22 01:55:05;;;;;;;20.00;10.33;;;11.30;99.90;;;;;;5072886;28;20292;-78
2021/09/22 01:57:33;;;;;;;21.03;10.00;;;11.40;99.90;;;;;;5073148;28;20225;-78
2021/09/22 02:00:00;;;;;;;16.90;10.07;;;11.50;99.90;;;;;;5072865;28;20581;-78
2021/09/22 02:02:28;;;;;;;17.80;10.50;;;11.50;99.90;;;;;;5072465;28;20673;-78
2021/09/22 02:04:55;;;;;;;20.67;10.93;;;11.50;99.90;;;;;;5072622;28;20668;-78
2021/09/22 02:07:22;;;;;;;17.00;10.80;;;11.50;99.90;;;;;;5072868;28;20206;-78
2021/09/22 02:09:49;;;;;;;24.63;11.23;;;11.40;99.90;;;;;;5072753;28;20316;-78
2021/09/22 02:12:16;;;;;;;19.17;10.80;;;11.30;99.90;;;;;;5072494;28;20209;-78
2021/09/22 02:14:44;;;;;;;23.20;11.67;;;11.40;99.90;;;;;;5073062;28;20209;-78
2021/09/22 02:17:11;;;;;;;21.17;11.47;;;11.40;99.90;;;;;;5073011;28;20217;-78
2021/09/22 02:19:38;;;;;;;16.37;10.33;;;11.40;99.90;;;;;;5072766;28;20280;-78
2021/09/22 02:22:05;;;;;;;18.47;10.83;;;11.30;99.90;;;;;;5072987;28;20214;-78
2021/09/22 02:24:31;;;;;;;21.37;11.63;;;11.40;99.90;;;;;;5072443;28;20558;-78
2021/09/22 02:26:58;;;;;;;17.50;10.73;;;11.40;99.90;;;;;;5072911;28;20301;-78
2021/09/22 02:29:25;;;;;;;20.10;11.63;;;11.30;99.90;;;;;;5072258;28;20207;-78
2021/09/22 02:31:54;;;;;;;18.33;11.27;;;11.20;99.90;;;;;;5072685;28;20665;-78
2021/09/22 02:34:20;;;;;;;18.63;10.87;;;11.20;99.90;;;;;;5072179;28;20731;-78
2021/09/22 02:36:47;;;;;;;19.23;10.87;;;11.20;99.90;;;;;;5076051;28;20202;-78
2021/09/22 02:39:14;;;;;;;23.00;11.40;;;11.20;99.90;;;;;;5076630;28;20209;-78
2021/09/22 02:41:41;;;;;;;24.63;11.47;;;11.20;99.90;;;;;;5076249;28;20615;-78
2021/09/22 02:44:08;;;;;;;22.20;11.73;;;11.20;99.90;;;;;;5076426;28;20735;-78
2021/09/22 02:46:35;;;;;;;24.63;12.77;;;11.20;99.90;;;;;;5076501;28;20214;-78
2021/09/22 02:49:04;;;;;;;19.53;11.80;;;11.30;99.90;;;;;;5076797;28;20237;-78
2021/09/22 02:51:30;;;;;;;22.67;11.60;;;11.30;99.90;;;;;;5076303;28;20228;-78
2021/09/22 02:53:57;;;;;;;21.77;11.47;;;11.30;99.90;;;;;;5076443;28;20198;-78
2021/09/22 02:56:24;;;;;;;21.40;11.73;;;11.30;99.90;;;;;;5076546;28;20213;-78
2021/09/22 02:58:51;;;;;;;20.80;12.10;;;11.20;99.90;;;;;;5076009;28;20296;-78
2021/09/22 03:01:18;;;;;;;24.17;13.17;;;11.20;99.90;;;;;;5076391;28;20209;-78
2021/09/22 03:03:45;;;;;;;21.67;12.43;;;11.20;99.90;;;;;;5076117;28;20318;-78
2021/09/22 03:06:13;;;;;;;19.00;11.73;;;11.20;99.90;;;;;;5076239;28;20202;-78
2021/09/22 03:08:40;;;;;;;22.47;11.17;;;11.20;99.90;;;;;;5075767;28;20297;-78
2021/09/22 03:11:08;;;;;;;17.83;10.83;;;11.10;99.90;;;;;;5076227;28;20219;-78
2021/09/22 03:13:36;;;;;;;19.03;10.87;;;11.10;99.90;;;;;;5069046;28;20653;-78
2021/09/22 03:16:04;;;;;;;19.67;11.50;;;11.10;99.90;;;;;;5069477;28;20722;-79
2021/09/22 03:18:31;;;;;;;26.60;11.33;;;11.10;99.90;;;;;;5070129;28;20209;-78
2021/09/22 03:20:58;;;;;;;18.87;11.47;;;11.10;99.90;;;;;;5069399;28;20200;-78
2021/09/22 03:23:26;;;;;;;20.93;11.17;;;11.10;99.90;;;;;;5065002;28;20208;-78
2021/09/22 03:25:54;;;;;;;20.50;10.53;;;11.00;99.90;;;;;;5067636;28;20196;-78
2021/09/22 03:28:21;;;;;;;18.23;11.57;;;11.00;99.90;;;;;;5066258;28;20204;-78
2021/09/22 03:30:48;;;;;;;24.93;11.23;;;11.00;99.90;;;;;;5066205;28;20597;-78
2021/09/22 03:33:15;;;;;;;21.33;11.10;;;11.00;99.90;;;;;;5067582;28;20757;-78
2021/09/22 03:35:42;;;;;;;20.20;11.23;;;10.90;99.90;;;;;;5070661;28;20229;-78
2021/09/22 03:38:09;;;;;;;21.13;11.57;;;10.90;99.90;;;;;;5075846;28;20212;-78
2021/09/22 03:40:37;;;;;;;18.07;10.73;;;11.00;99.90;;;;;;5075848;28;20567;-78
2021/09/22 03:43:04;;;;;;;22.47;10.83;;;10.90;99.90;;;;;;5075450;28;20212;-78
2021/09/22 03:45:31;;;;;;;22.07;11.53;;;10.90;99.90;;;;;;5075416;28;20206;-78
2021/09/22 03:47:58;;;;;;;21.50;11.30;;;10.90;99.90;;;;;;5074971;28;20231;-78
2021/09/22 03:50:26;;;;;;;25.27;12.97;;;10.90;99.90;;;;;;5075184;28;20236;-78
2021/09/22 03:52:53;;;;;;;20.47;11.63;;;10.80;99.90;;;;;;5075631;28;20215;-78
2021/09/22 03:55:19;;;;;;;20.47;11.03;;;11.00;99.90;;;;;;5075822;28;20232;-78
2021/09/22 03:57:48;;;;;;;19.53;11.40;;;11.00;99.90;;;;;;5075411;28;20212;-78
2021/09/22 04:00:15;;;;;;;22.67;11.87;;;10.90;99.90;;;;;;5075046;28;20248;-78
2021/09/22 04:02:42;;;;;;;21.47;11.37;;;11.00;99.90;;;;;;5074620;28;20745;-78
2021/09/22 04:05:10;;;;;;;24.20;11.07;;;11.00;99.90;;;;;;5074746;28;20225;-78
2021/09/22 04:07:37;;;;;;;21.67;11.03;;;11.00;99.90;;;;;;5075028;28;20202;-78
2021/09/22 04:10:05;;;;;;;21.63;12.43;;;11.00;99.90;;;;;;5065709;28;20210;-76
2021/09/22 04:12:31;;;;;;;20.93;11.83;;;11.00;99.90;;;;;;5074640;28;20207;-78
2021/09/22 04:15:00;;;;;;;23.97;12.43;;;10.90;99.90;;;;;;5070093;28;20224;-78
2021/09/22 04:17:26;;;;;;;22.00;11.60;;;10.90;99.90;;;;;;5074414;28;20650;-78
2021/09/22 04:19:53;;;;;;;19.60;11.67;;;10.90;99.90;;;;;;5074836;28;20205;-78
2021/09/22 04:22:20;;;;;;;19.53;11.07;;;10.90;99.90;;;;;;5074609;28;20293;-78
2021/09/22 04:24:47;;;;;;;21.10;12.07;;;10.80;99.90;;;;;;5074712;28;20204;-77
2021/09/22 04:27:14;;;;;;;18.73;11.23;;;10.60;99.90;;;;;;5074162;28;20649;-78
2021/09/22 04:29:42;;;;;;;21.00;11.27;;;10.60;99.90;;;;;;5074509;28;20209;-77
2021/09/22 04:32:11;;;;;;;20.70;11.30;;;10.60;99.90;;;;;;5073999;28;20253;-77
2021/09/22 04:34:38;;;;;;;19.97;11.07;;;10.60;99.90;;;;;;5060905;28;20244;-77
2021/09/22 04:37:05;;;;;;;22.73;11.30;;;10.60;99.90;;;;;;5074437;28;20289;-77
2021/09/22 04:39:32;;;;;;;19.97;11.60;;;10.60;99.90;;;;;;5078016;28;20205;-78
2021/09/22 04:41:59;;;;;;;22.07;11.80;;;10.60;99.90;;;;;;5078026;28;20198;-78
2021/09/22 04:44:26;;;;;;;24.00;11.87;;;10.60;99.90;;;;;;5073920;28;20202;-77
2021/09/22 04:46:53;;;;;;;24.00;12.00;;;10.60;99.90;;;;;;5074417;28;20207;-77
2021/09/22 04:49:21;;;;;;;27.83;13.50;;;10.60;99.90;;;;;;5073760;28;20196;-77
2021/09/22 04:51:48;;;;;;;22.60;12.53;;;10.60;99.90;;;;;;5073988;28;20225;-78
2021/09/22 04:54:15;;;;;;;23.10;13.20;;;10.60;99.90;;;;;;5074066;28;20681;-78
2021/09/22 04:56:42;;;;;;;26.43;13.10;;;10.60;99.90;;;;;;5073762;28;20663;-77
2021/09/22 04:59:09;;;;;;;29.17;12.90;;;10.60;99.90;;;;;;5073310;28;20215;-78
2021/09/22 05:01:36;;;;;;;30.70;13.83;;;10.60;99.90;;;;;;5072996;28;20304;-77
2021/09/22 05:04:02;;;;;;;26.07;13.17;;;10.60;99.90;;;;;;5074152;28;20600;-78
2021/09/22 05:06:30;;;;;;;24.63;13.27;;;10.60;99.90;;;;;;5072647;28;20594;-77
2021/09/22 05:08:57;;;;;;;27.23;13.40;;;10.50;99.90;;;;;;5065986;28;20312;-77
2021/09/22 05:11:26;;;;;;;24.17;13.00;;;10.60;99.90;;;;;;5070364;28;20332;-77
2021/09/22 05:13:53;;;;;;;21.03;12.07;;;10.60;99.90;;;;;;5068631;28;20327;-78
2021/09/22 05:16:20;;;;;;;28.00;13.07;;;10.60;99.90;;;;;;5071672;28;20297;-78
2021/09/22 05:18:46;;;;;;;23.47;12.40;;;10.60;99.90;;;;;;5070226;28;20205;-77
2021/09/22 05:21:13;;;;;;;25.57;12.70;;;10.60;99.90;;;;;;5072394;28;20205;-77
2021/09/22 05:23:42;;;;;;;24.17;13.00;;;10.60;99.90;;;;;;5070877;28;20207;-77
2021/09/22 05:26:11;;;;;;;27.33;13.60;;;10.50;99.90;;;;;;5071771;28;20567;-78
2021/09/22 05:28:38;;;;;;;25.90;12.63;;;10.50;99.90;;;;;;5071426;28;20551;-79
2021/09/22 05:31:05;;;;;;;27.73;13.93;;;10.50;99.90;;;;;;5070687;28;20628;-78
2021/09/22 05:33:32;;;;;;;26.83;13.83;;;10.50;99.90;;;;;;5071487;28;20297;-78
2021/09/22 05:35:59;;;;;;;26.60;14.00;;;10.50;99.90;;;;;;5068613;28;20294;-79
2021/09/22 05:38:26;;;;;;;23.53;13.53;;;10.40;99.90;;;;;;5066884;28;20280;-78
2021/09/22 05:40:54;;;;;;;24.83;13.37;;;10.40;99.90;;;;;;5070095;28;20202;-78
2021/09/22 05:43:21;;;;;;;29.13;12.93;;;10.30;99.90;;;;;;5070276;28;20263;-78
2021/09/22 05:45:48;;;;;;;24.70;12.67;;;10.30;99.90;;;;;;5070517;28;20659;-78
2021/09/22 05:48:15;;;;;;;27.17;13.73;;;10.30;99.90;;;;;;5067155;28;20216;-79
2021/09/22 05:50:42;;;;;;;26.30;13.23;;;10.40;99.90;;;;;;5071588;28;20221;-77
2021/09/22 05:53:09;;;;;;;28.37;13.80;;;10.40;99.90;;;;;;5071821;28;20267;-78
2021/09/22 05:55:36;;;;;;;25.73;13.67;;;10.40;99.90;;;;;;5072848;28;20190;-78
2021/09/22 05:58:04;;;;;;;26.50;14.07;;;10.40;99.90;;;;;;5073163;28;20293;-78
2021/09/22 06:00:31;;;;;;;22.60;12.40;;;10.50;99.90;;;;;;5072890;28;20212;-78
2021/09/22 06:02:58;;;;;;;31.00;13.17;;;10.50;99.90;;;;;;5072946;28;20543;-76
2021/09/22 06:05:25;;;;;;;21.70;12.03;;;10.60;99.90;;;;;;5072682;28;20206;-75
2021/09/22 06:07:51;;;;;;;27.50;13.23;;;10.60;99.90;;;;;;5072381;28;20216;-75
2021/09/22 06:10:18;;;;;;;33.10;13.07;;;10.70;99.90;;;;;;5072572;28;20293;-75
2021/09/22 06:12:45;;;;;;;26.90;13.83;;;10.80;99.90;;;;;;5072388;28;20591;-78
2021/09/22 06:15:13;;;;;;;30.63;15.03;;;10.90;99.90;;;;;;5070667;28;20209;-77
2021/09/22 06:17:40;;;;;;;29.37;14.00;;;11.00;99.90;;;;;;5071866;28;20279;-77
2021/09/22 06:20:09;;;;;;;28.43;14.30;;;11.10;99.90;;;;;;5072545;28;20224;-78
2021/09/22 06:22:36;;;;;;;37.07;14.77;;;11.20;99.90;;;;;;5072664;28;20538;-78
2021/09/22 06:25:03;;;;;;;29.07;13.93;;;11.30;99.90;;;;;;5072449;28;20241;-78
2021/09/22 06:27:30;;;;;;;24.03;13.73;;;11.40;99.90;;;;;;5073058;28;20280;-78
2021/09/22 06:29:57;;;;;;;26.77;12.63;;;11.40;99.90;;;;;;5072911;28;20202;-78
2021/09/22 06:32:25;;;;;;;26.37;13.17;;;11.60;99.90;;;;;;5072327;28;20222;-78
2021/09/22 06:34:52;;;;;;;28.00;14.00;;;11.70;99.90;;;;;;5072576;28;20274;-78
2021/09/22 06:37:19;;;;;;;27.33;13.60;;;11.80;99.90;;;;;;5073187;28;20287;-78
2021/09/22 06:39:46;;;;;;;28.73;13.87;;;12.00;99.90;;;;;;5073029;28;20268;-78
2021/09/22 06:42:13;;;;;;;28.70;13.50;;;12.10;99.90;;;;;;5072879;28;20199;-78
2021/09/22 06:44:40;;;;;;;22.53;12.83;;;12.20;99.90;;;;;;5072513;28;20203;-78
2021/09/22 06:47:07;;;;;;;25.10;12.83;;;12.30;99.90;;;;;;5072502;28;20286;-78
2021/09/22 06:49:35;;;;;;;21.87;12.57;;;12.40;99.90;;;;;;5072736;28;20203;-78
2021/09/22 06:52:02;;;;;;;22.90;12.50;;;12.50;99.90;;;;;;5072748;28;20219;-78
2021/09/22 06:54:29;;;;;;;23.83;11.97;;;12.60;99.90;;;;;;5072822;28;20203;-78
2021/09/22 06:56:55;;;;;;;22.23;12.10;;;12.70;99.90;;;;;;5072439;28;20743;-78
2021/09/22 06:59:22;;;;;;;22.77;11.37;;;12.90;99.90;;;;;;5072461;28;20206;-78
2021/09/22 07:01:49;;;;;;;18.87;11.73;;;13.00;99.90;;;;;;5072768;28;20283;-78
2021/09/22 07:04:16;;;;;;;20.23;12.53;;;13.20;99.90;;;;;;5072039;28;20298;-78
2021/09/22 07:06:44;;;;;;;22.97;12.73;;;13.30;99.90;;;;;;5072500;28;20200;-78
2021/09/22 07:09:11;;;;;;;22.73;11.70;;;13.40;99.90;;;;;;5072112;28;20693;-79
2021/09/22 07:11:38;;;;;;;22.33;12.43;;;13.50;99.90;;;;;;5072328;28;20669;-79
2021/09/22 07:14:05;;;;;;;24.47;12.73;;;13.60;99.90;;;;;;5072410;28;20196;-79
2021/09/22 07:16:32;;;;;;;24.63;13.23;;;13.80;99.90;;;;;;5072425;28;20200;-79
2021/09/22 07:18:59;;;;;;;25.17;12.97;;;13.90;99.90;;;;;;5072376;28;20294;-79
2021/09/22 07:21:26;;;;;;;19.83;12.07;;;14.10;99.90;;;;;;5073534;28;20235;-79
2021/09/22 07:23:54;;;;;;;26.07;13.00;;;14.20;99.90;;;;;;5075898;28;20600;-79
2021/09/22 07:26:21;;;;;;;21.07;13.00;;;14.30;99.90;;;;;;5076274;28;20218;-79
2021/09/22 07:28:48;;;;;;;23.27;12.40;;;14.40;99.90;;;;;;5075998;28;20210;-79
2021/09/22 07:31:15;;;;;;;25.73;12.93;;;14.60;99.90;;;;;;5075717;28;20310;-79
2021/09/22 07:33:41;;;;;;;24.13;12.90;;;14.70;99.90;;;;;;5075851;28;20314;-79
2021/09/22 07:36:10;;;;;;;31.47;13.57;;;14.80;99.90;;;;;;5075671;28;20257;-79
2021/09/22 07:38:37;;;;;;;23.03;11.97;;;15.00;99.90;;;;;;5075921;28;20205;-76
2021/09/22 07:41:06;;;;;;;22.13;12.77;;;15.10;99.90;;;;;;5075052;28;20207;-82
2021/09/22 07:43:33;;;;;;;19.53;12.10;;;15.30;99.90;;;;;;5072866;28;20234;-77
2021/09/22 07:46:00;;;;;;;19.77;11.97;;;15.50;99.90;;;;;;5074644;28;20656;-77
2021/09/22 07:48:27;;;;;;;27.23;12.77;;;15.70;99.90;;;;;;5072059;28;20211;-76
2021/09/22 07:50:54;;;;;;;24.50;12.77;;;15.90;99.90;;;;;;5075137;28;20195;-76
2021/09/22 07:53:21;;;;;;;25.07;12.30;;;16.10;99.90;;;;;;5074340;28;20234;-77
2021/09/22 07:55:48;;;;;;;24.87;13.73;;;16.30;99.90;;;;;;5075427;28;20381;-76
2021/09/22 07:58:18;;;;;;;24.57;12.10;;;16.50;99.90;;;;;;5065227;28;20204;-77
2021/09/22 08:00:45;;;;;;;26.67;12.63;;;16.70;99.90;;;;;;5055150;28;20204;-77
2021/09/22 08:03:12;;;;;;;25.70;12.40;;;17.00;99.90;;;;;;5055582;28;20510;-76
2021/09/22 08:05:39;;;;;;;19.97;12.53;;;17.20;99.90;;;;;;5055135;28;20290;-76
2021/09/22 08:08:07;;;;;;;32.33;12.97;;;17.40;99.90;;;;;;5070034;28;20198;-76
2021/09/22 08:10:35;;;;;;;26.73;13.00;;;17.60;99.90;;;;;;5074995;28;20202;-76
2021/09/22 08:13:02;;;;;;;25.43;13.20;;;17.80;99.90;;;;;;5074886;28;20219;-76
2021/09/22 08:15:31;;;;;;;24.37;12.13;;;17.90;99.90;;;;;;5074955;28;20207;-76
2021/09/22 08:17:58;;;;;;;21.27;12.00;;;18.10;99.90;;;;;;5075255;28;20205;-76
2021/09/22 08:20:25;;;;;;;20.77;12.20;;;18.30;99.90;;;;;;5074904;28;20202;-76
2021/09/22 08:22:52;;;;;;;22.43;11.37;;;18.60;99.90;;;;;;5074947;28;20191;-77
2021/09/22 08:25:19;;;;;;;23.47;11.97;;;18.90;99.90;;;;;;5075042;28;20298;-76
2021/09/22 08:27:46;;;;;;;19.23;11.53;;;19.10;99.90;;;;;;5074993;28;20293;-76
2021/09/22 08:30:14;;;;;;;23.43;12.37;;;19.40;99.90;;;;;;5073967;28;20681;-79
2021/09/22 08:32:43;;;;;;;19.47;11.97;;;19.70;99.90;;;;;;5073249;28;20219;-79
2021/09/22 08:35:10;;;;;;;20.40;12.10;;;20.00;99.90;;;;;;5074955;28;20728;-79
2021/09/22 08:37:38;;;;;;;20.33;11.83;;;20.20;99.90;;;;;;5074202;28;20195;-79
2021/09/22 08:40:06;;;;;;;24.23;11.33;;;20.40;99.90;;;;;;5063644;28;20191;-80
2021/09/22 08:42:33;;;;;;;17.60;10.90;;;20.50;99.90;;;;;;5061707;28;20188;-79
2021/09/22 08:45:00;;;;;;;20.77;10.97;;;20.70;99.90;;;;;;5067250;28;20202;-79
2021/09/22 08:47:27;;;;;;;17.03;9.83;;;20.90;99.90;;;;;;5074686;28;20206;-79
2021/09/22 08:49:55;;;;;;;16.73;10.63;;;21.00;99.90;;;;;;5074417;28;20202;-79
2021/09/22 08:52:22;;;;;;;16.70;10.30;;;20.90;99.90;;;;;;5070799;28;20629;-79
2021/09/22 08:54:49;;;;;;;18.13;10.27;;;20.90;99.90;;;;;;5073820;28;20235;-79
2021/09/22 08:57:16;;;;;;;17.80;10.33;;;20.80;99.90;;;;;;5074086;28;20203;-79
2021/09/22 08:59:43;;;;;;;16.23;9.93;;;20.70;99.90;;;;;;5074021;28;20564;-79
2021/09/22 09:02:13;;;;;;;17.07;9.90;;;20.80;99.90;;;;;;5074256;28;20297;-79
2021/09/22 09:04:42;;;;;;;13.83;9.07;;;20.80;99.90;;;;;;5073953;28;20203;-79
2021/09/22 09:07:11;;;;;;;17.70;9.83;;;20.90;99.90;;;;;;5069911;28;20204;-79
2021/09/22 09:09:40;;;;;;;15.27;9.27;;;21.10;99.90;;;;;;5053876;28;20207;-79
2021/09/22 09:12:16;;;;;;;14.30;9.23;;;21.10;99.90;;;;;;5063096;28;20219;-79
2021/09/22 09:14:51;;;;;;;15.80;9.90;;;21.20;99.90;;;;;;5073297;28;20179;-79
2021/09/22 09:17:39;;;;;;;14.20;9.40;;;21.30;99.90;;;;;;5073631;28;20183;-80
2021/09/22 09:20:18;;;;;;;14.13;9.00;;;21.40;99.90;;;;;;5073306;28;20671;-79
2021/09/22 09:23:16;;;;;;;19.83;8.50;;;21.50;99.90;;;;;;5073711;28;20286;-79
2021/09/22 09:25:45;;;;;;;15.82;9.48;;;21.50;99.90;;;;;;5073282;28;20680;-79
2021/09/22 09:28:25;;;;;;;15.65;10.63;;;21.50;99.90;;;;;;5073267;28;20290;-79
2021/09/22 09:30:54;;;;;;;23.27;11.05;;;21.40;99.90;;;;;;5073727;28;20191;-79
2021/09/22 09:33:42;;;;;;;19.02;11.55;;;21.40;99.90;;;;;;5073131;28;20229;-79
2021/09/22 09:36:18;;;;;;;22.77;11.80;;;21.30;99.90;;;;;;5073303;28;20199;-79
2021/09/22 09:38:51;;;;;;;23.48;11.82;;;21.30;99.90;;;;;;5073140;28;20203;-79
2021/09/22 09:41:36;;;;;;;20.77;12.70;;;21.20;99.90;;;;;;5063033;28;20222;-79
2021/09/22 09:44:06;;;;;;;19.00;12.20;;;21.20;99.90;;;;;;5063196;28;20279;-79
2021/09/22 09:46:33;;;;;;;27.75;13.00;;;21.20;99.90;;;;;;5061667;28;20751;-79
2021/09/22 09:49:04;;;;;;;24.03;12.20;;;21.10;99.90;;;;;;5061422;28;20665;-79
2021/09/22 09:51:32;;;;;;;25.00;13.10;;;21.10;99.90;;;;;;5067313;28;20231;-79
2021/09/22 09:54:07;;;;;;;26.52;11.30;;;21.10;99.90;;;;;;5072966;28;20226;-79
2021/09/22 09:56:34;;;;;;;27.73;11.63;;;20.90;99.90;;;;;;5072913;28;20568;-78
2021/09/22 09:59:02;;;;;;;24.17;10.57;;;20.80;99.90;;;;;;5069936;28;20332;-78
2021/09/22 10:01:37;;;;;;;18.20;9.30;;;20.60;99.90;;;;;;5052734;28;20199;-79
2021/09/22 10:04:06;;;;;;;16.13;10.43;;;20.60;99.90;;;;;;5052193;28;20196;-79
2021/09/22 10:06:33;;;;;;;18.87;10.17;;;20.50;99.90;;;;;;5052334;28;20284;-79
2021/09/22 10:09:00;;;;;;;18.20;9.37;;;20.50;99.90;;;;;;5052968;28;20695;-79
2021/09/22 10:11:28;;;;;;;19.20;8.83;;;20.40;99.90;;;;;;5052776;28;20222;-79
2021/09/22 10:13:56;;;;;;;16.77;9.37;;;21.00;99.90;;;;;;5052942;28;20224;-79
2021/09/22 10:16:23;;;;;;;13.57;9.10;;;22.00;99.90;;;;;;5067869;28;20203;-79
2021/09/22 10:18:50;;;;;;;17.30;9.23;;;23.20;99.90;;;;;;5073109;28;20205;-79
2021/09/22 10:21:21;;;;;;;15.70;9.18;;;23.50;99.90;;;;;;5072594;28;20206;-79
2021/09/22 10:23:50;;;;;;;14.55;9.10;;;24.00;99.90;;;;;;5072004;28;20219;-79
2021/09/22 10:26:17;;;;;;;16.17;8.13;;;25.20;99.90;;;;;;5071933;28;20204;-79
2021/09/22 10:28:48;;;;;;;14.05;8.10;;;26.20;99.90;;;;;;5059437;28;20650;-79
2021/09/22 10:31:17;;;;;;;13.50;8.43;;;26.70;99.90;;;;;;5053715;28;20571;-79
2021/09/22 10:33:46;;;;;;;17.48;9.23;;;26.70;99.90;;;;;;5053706;28;20216;-79
2021/09/22 10:36:15;;;;;;;16.50;8.57;;;27.30;99.90;;;;;;5052986;28;20243;-79
2021/09/22 10:38:45;;;;;;;11.88;8.27;;;27.10;99.90;;;;;;5057873;28;20294;-80
2021/09/22 10:41:25;;;;;;;15.85;7.90;;;26.60;99.90;;;;;;5058838;28;20291;-79
2021/09/22 10:43:53;;;;;;;14.27;8.68;;;26.10;99.90;;;;;;5064779;28;20199;-79
2021/09/22 10:46:22;;;;;;;11.55;7.82;;;26.10;99.90;;;;;;5072833;28;20199;-79
2021/09/22 10:49:15;;;;;;;13.98;9.30;;;26.40;99.90;;;;;;5072730;28;20686;-78
2021/09/22 10:51:45;;;;;;;15.70;8.80;;;26.40;99.90;;;;;;5057719;28;20653;-78
2021/09/22 10:54:14;;;;;;;11.57;7.70;;;26.80;99.90;;;;;;5051758;28;20219;-79
2021/09/22 10:56:57;;;;;;;14.40;8.60;;;27.40;99.90;;;;;;5054198;28;20277;-78
2021/09/22 10:59:27;;;;;;;10.32;7.45;;;27.30;99.90;;;;;;5056582;28;20200;-79
2021/09/22 11:01:54;;;;;;;15.20;8.10;;;27.70;99.90;;;;;;5056235;28;20687;-79
2021/09/22 11:04:22;;;;;;;13.80;8.50;;;28.30;99.90;;;;;;5056634;28;20290;-79
2021/09/22 11:06:59;;;;;;;11.98;7.85;;;28.20;99.90;;;;;;5056459;28;20207;-78
2021/09/22 11:09:34;;;;;;;13.02;7.90;;;28.30;99.90;;;;;;5075553;28;20203;-79
2021/09/22 11:12:07;;;;;;;13.70;8.20;;;28.10;99.90;;;;;;5075364;28;20238;-79
2021/09/22 11:14:37;;;;;;;13.43;8.25;;;27.80;99.90;;;;;;5074904;28;20559;-77
2021/09/22 11:17:07;;;;;;;13.95;8.48;;;27.70;99.90;;;;;;5075356;28;20253;-77
2021/09/22 11:19:34;;;;;;;10.20;8.23;;;27.60;99.90;;;;;;5075581;28;20269;-77
2021/09/22 11:22:03;;;;;;;10.65;7.70;;;27.80;99.90;;;;;;5075567;28;20199;-78
2021/09/22 11:24:32;;;;;;;14.38;8.48;;;27.60;99.90;;;;;;5075891;28;20294;-77
2021/09/22 11:27:00;;;;;;;14.20;8.23;;;27.50;99.90;;;;;;5074231;28;20203;-78
2021/09/22 11:29:36;;;;;;;11.57;8.05;;;27.10;99.90;;;;;;5073810;28;20195;-77
2021/09/22 11:32:07;;;;;;;13.35;9.18;;;27.00;99.90;;;;;;5073351;28;20258;-78
2021/09/22 11:34:37;;;;;;;14.23;8.38;;;26.70;99.90;;;;;;5070510;28;20215;-78
2021/09/22 11:37:10;;;;;;;14.13;8.52;;;26.70;99.90;;;;;;5064452;28;20199;-78
2021/09/22 11:39:37;;;;;;;13.05;8.75;;;26.90;99.90;;;;;;5066697;28;20287;-78
2021/09/22 11:42:05;;;;;;;10.70;7.30;;;26.90;99.90;;;;;;5073007;28;20195;-77
2021/09/22 11:44:35;;;;;;;10.85;6.93;;;26.00;99.90;;;;;;5074451;28;20221;-78
2021/09/22 11:47:05;;;;;;;9.63;6.72;;;26.00;99.90;;;;;;5075265;28;20200;-78
2021/09/22 11:49:34;;;;;;;11.82;6.80;;;26.20;99.90;;;;;;5075154;28;20544;-78
2021/09/22 11:52:12;;;;;;;8.18;6.07;;;26.50;99.90;;;;;;5064651;28;20303;-78
2021/09/22 11:54:43;;;;;;;12.52;7.65;;;26.80;99.90;;;;;;5073313;28;20671;-78
2021/09/22 11:57:11;;;;;;;12.65;6.85;;;26.60;99.90;;;;;;5075183;28;20210;-78
2021/09/22 11:59:41;;;;;;;9.45;6.40;;;25.80;99.90;;;;;;5074091;28;20660;-79
2021/09/22 12:02:09;;;;;;;9.90;6.05;;;25.70;99.90;;;;;;5070432;28;20200;-79
2021/09/22 12:04:38;;;;;;;7.57;5.63;;;25.40;99.90;;;;;;5074443;28;20616;-79
2021/09/22 12:07:05;;;;;;;6.43;4.80;;;25.20;99.90;;;;;;5067901;28;20199;-78
2021/09/22 12:09:43;;;;;;;13.52;6.35;;;25.20;99.90;;;;;;5067924;28;20204;-78
2021/09/22 12:12:16;;;;;;;9.88;6.82;;;25.40;99.90;;;;;;5069877;28;20572;-78
2021/09/22 12:14:49;;;;;;;11.82;6.57;;;25.50;99.90;;;;;;5074770;28;20212;-78
2021/09/22 12:17:20;;;;;;;11.75;6.65;;;25.30;99.90;;;;;;5074249;28;20206;-77
2021/09/22 12:19:48;;;;;;;10.07;5.70;;;25.70;99.90;;;;;;5074593;28;20281;-77
2021/09/22 12:22:22;;;;;;;11.48;5.90;;;25.70;99.90;;;;;;5067872;28;20306;-77
2021/09/22 12:24:49;;;;;;;7.80;4.72;;;25.30;99.90;;;;;;5075315;28;20656;-78
2021/09/22 12:27:18;;;;;;;8.00;6.15;;;25.80;99.90;;;;;;5074183;28;20198;-77
2021/09/22 12:29:56;;;;;;;11.63;5.85;;;26.30;99.90;;;;;;5073574;28;20576;-77
2021/09/22 12:32:27;;;;;;;10.68;6.03;;;26.30;99.90;;;;;;5074149;28;20658;-77
2021/09/22 12:34:55;;;;;;;9.38;4.82;;;26.20;99.90;;;;;;5073791;28;20224;-77
2021/09/22 12:37:23;;;;;;;9.30;4.88;;;26.20;99.90;;;;;;5065987;28;20545;-78